createdAt,value
2023-05-11T00:01:15.199Z,25.70
2023-05-11T00:03:25.900Z,25.70
2023-05-11T00:06:04.706Z,25.70
2023-05-11T00:08:30.093Z,25.70
2023-05-11T00:11:02.132Z,25.80
2023-05-11T00:13:34.504Z,25.70
2023-05-11T00:16:05.804Z,25.70
2023-05-11T00:18:38.332Z,25.70
2023-05-11T00:21:09.733Z,25.70
2023-05-11T00:23:41.713Z,25.70
2023-05-11T00:26:12.947Z,25.70
2023-05-11T00:28:45.398Z,25.70
2023-05-11T00:31:18.428Z,25.70
2023-05-11T00:33:55.466Z,25.70
2023-05-11T00:36:34.306Z,25.70
2023-05-11T00:39:05.356Z,25.80
2023-05-11T00:41:40.130Z,25.80
2023-05-11T00:44:10.787Z,25.80
2023-05-11T00:46:43.777Z,25.80
2023-05-11T00:49:17.150Z,25.80
2023-05-11T00:51:49.668Z,25.80
2023-05-11T00:54:20.973Z,25.80
2023-05-11T00:56:52.138Z,25.90
2023-05-11T00:59:23.245Z,26.00
2023-05-11T01:01:54.252Z,26.00
2023-05-11T01:04:25.351Z,26.10
2023-05-11T01:07:08.014Z,26.10
2023-05-11T01:09:49.854Z,26.20
2023-05-11T01:12:39.871Z,26.20
2023-05-11T01:15:19.985Z,26.20
2023-05-11T01:18:05.337Z,26.30
2023-05-11T01:20:37.231Z,26.40
2023-05-11T01:23:45.636Z,26.40
2023-05-11T01:26:31.046Z,26.50
2023-05-11T01:29:20.590Z,26.50
2023-05-11T01:31:54.860Z,26.60
2023-05-11T01:34:28.696Z,26.70
2023-05-11T01:37:02.018Z,26.80
2023-05-11T01:39:38.688Z,26.90
2023-05-11T01:42:13.527Z,26.90
2023-05-11T01:44:46.546Z,27.00
2023-05-11T01:47:20.400Z,27.10
2023-05-11T01:49:53.411Z,27.10
2023-05-11T01:52:27.212Z,27.20
2023-05-11T01:54:59.836Z,27.20
2023-05-11T01:57:33.549Z,27.20
2023-05-11T02:00:05.262Z,27.20
2023-05-11T02:02:38.182Z,27.20
2023-05-11T02:05:10.824Z,27.20
2023-05-11T02:07:43.549Z,27.30
2023-05-11T02:10:17.044Z,27.30
2023-05-11T02:12:49.821Z,27.40
2023-05-11T02:15:22.747Z,27.40
2023-05-11T02:17:55.585Z,27.50
2023-05-11T02:20:28.768Z,27.60
2023-05-11T02:23:00.889Z,27.70
2023-05-11T02:25:32.235Z,27.70
2023-05-11T02:28:04.390Z,27.80
2023-05-11T02:30:37.654Z,27.90
2023-05-11T02:33:10.671Z,27.90
2023-05-11T02:35:44.466Z,28.00
2023-05-11T02:38:16.784Z,28.00
2023-05-11T02:40:53.182Z,28.10
2023-05-11T02:43:29.659Z,28.10
2023-05-11T02:46:09.810Z,28.20
2023-05-11T02:48:46.631Z,28.20
2023-05-11T02:51:19.657Z,28.20
2023-05-11T02:53:57.054Z,28.30
2023-05-11T02:56:28.285Z,28.30
2023-05-11T02:59:14.989Z,28.30
2023-05-11T03:01:45.557Z,28.30
2023-05-11T03:04:16.947Z,28.30
2023-05-11T03:16:21.344Z,28.30
2023-05-11T03:18:53.490Z,28.40
2023-05-11T03:21:26.617Z,28.40
2023-05-11T03:23:59.054Z,28.40
2023-05-11T03:26:35.636Z,28.40
2023-05-11T03:29:09.003Z,28.50
2023-05-11T03:31:39.853Z,28.40
2023-05-11T03:34:11.118Z,28.50
2023-05-11T03:36:44.826Z,28.50
2023-05-11T03:39:21.152Z,28.50
2023-05-11T03:41:54.611Z,28.60
2023-05-11T03:44:26.109Z,28.60
2023-05-11T03:46:58.886Z,28.60
2023-05-11T03:49:31.159Z,28.60
2023-05-11T03:52:02.901Z,28.50
2023-05-11T03:54:34.088Z,28.60
2023-05-11T03:57:05.120Z,28.60
2023-05-11T03:59:35.974Z,28.60
2023-05-11T04:02:07.141Z,28.60
2023-05-11T04:04:40.704Z,28.60
2023-05-11T04:07:11.457Z,28.70
2023-05-11T04:09:42.799Z,28.70
2023-05-11T04:12:13.736Z,28.70
2023-05-11T04:14:44.673Z,28.80
2023-05-11T04:17:16.121Z,28.80
2023-05-11T04:19:47.526Z,28.90
2023-05-11T04:22:18.709Z,29.00
2023-05-11T04:24:49.667Z,29.00
2023-05-11T04:27:40.848Z,29.00
2023-05-11T04:30:12.525Z,29.10
2023-05-11T04:32:45.816Z,29.10
2023-05-11T04:35:16.279Z,29.20
2023-05-11T04:37:47.594Z,29.20
2023-05-11T04:40:19.136Z,29.20
2023-05-11T04:42:50.010Z,29.30
2023-05-11T04:45:21.710Z,29.40
2023-05-11T04:47:52.517Z,29.50
2023-05-11T04:50:23.452Z,29.60
2023-05-11T04:52:57.018Z,29.70
2023-05-11T04:57:58.453Z,30.10
2023-05-11T05:00:29.373Z,30.30
2023-05-11T05:03:00.368Z,30.50
2023-05-11T05:05:31.194Z,30.60
2023-05-11T05:08:02.039Z,30.70
2023-05-11T05:10:33.184Z,30.70
2023-05-11T05:13:04.038Z,30.90
2023-05-11T05:15:35.257Z,31.00
2023-05-11T05:18:06.578Z,31.10
2023-05-11T05:20:37.380Z,31.10
2023-05-11T05:23:08.236Z,31.10
2023-05-11T05:25:39.638Z,31.10
2023-05-11T05:28:10.695Z,31.10
2023-05-11T05:30:42.109Z,31.20
2023-05-11T05:33:13.104Z,31.10
2023-05-11T05:35:48.729Z,31.00
2023-05-11T05:38:21.586Z,31.00
2023-05-11T05:40:52.924Z,31.00
2023-05-11T05:43:50.524Z,31.10
2023-05-11T05:46:08.907Z,31.20
2023-05-11T05:48:48.131Z,31.30
2023-05-11T05:51:14.887Z,31.30
2023-05-11T05:53:49.096Z,31.30
2023-05-11T05:56:25.292Z,31.40
2023-05-11T05:58:55.718Z,31.40
2023-05-11T06:01:29.901Z,31.40
2023-05-11T06:04:25.224Z,31.30
2023-05-11T06:06:44.608Z,31.20
2023-05-11T06:09:16.764Z,31.20
2023-05-11T06:11:54.374Z,31.20
2023-05-11T06:14:35.887Z,31.40
2023-05-11T06:17:10.778Z,31.40
2023-05-11T06:19:42.687Z,31.50
2023-05-11T06:22:17.002Z,31.40
2023-05-11T06:27:24.607Z,31.30
2023-05-11T06:29:58.315Z,31.40
2023-05-11T06:32:31.414Z,31.40
2023-05-11T06:35:09.566Z,31.50
2023-05-11T06:37:42.709Z,31.50
2023-05-11T06:40:14.615Z,31.60
2023-05-11T06:42:46.491Z,31.70
2023-05-11T06:45:18.230Z,31.80
2023-05-11T06:48:13.037Z,31.90
2023-05-11T06:50:31.521Z,31.80
2023-05-11T06:53:03.616Z,31.70
2023-05-11T06:55:43.305Z,31.70
2023-05-11T06:58:15.635Z,31.70
2023-05-11T07:00:46.838Z,31.80
2023-05-11T07:03:19.319Z,31.70
2023-05-11T07:06:08.342Z,31.70
2023-05-11T07:08:41.002Z,31.80
2023-05-11T07:11:18.694Z,31.80
2023-05-11T07:13:54.566Z,31.90
2023-05-11T07:16:25.611Z,31.90
2023-05-11T07:18:57.421Z,32.00
2023-05-11T07:21:30.423Z,32.10
2023-05-11T07:24:02.178Z,32.10
2023-05-11T07:26:33.231Z,32.00
2023-05-11T07:29:04.915Z,31.90
2023-05-11T07:31:37.414Z,31.80
2023-05-11T07:34:08.463Z,31.70
2023-05-11T07:36:39.491Z,31.70
2023-05-11T07:39:11.868Z,31.70
2023-05-11T07:41:43.086Z,31.70
2023-05-11T07:44:14.504Z,31.70
2023-05-11T07:46:46.093Z,31.80
2023-05-11T07:49:20.748Z,31.80
2023-05-11T07:51:49.361Z,31.90
2023-05-11T07:54:21.716Z,31.90
2023-05-11T07:56:53.542Z,31.90
2023-05-11T07:59:24.657Z,31.80
2023-05-11T08:01:55.829Z,31.80
2023-05-11T08:04:27.190Z,31.70
2023-05-11T08:06:59.820Z,31.70
2023-05-11T08:09:31.110Z,31.60
2023-05-11T08:12:03.325Z,31.60
2023-05-11T08:14:34.483Z,31.50
2023-05-11T08:17:06.977Z,31.40
2023-05-11T08:19:40.125Z,31.50
2023-05-11T08:22:11.810Z,31.50
2023-05-11T08:24:43.325Z,31.50
2023-05-11T08:27:16.218Z,31.50
2023-05-11T08:29:47.957Z,31.50
2023-05-11T08:32:19.015Z,31.50
2023-05-11T08:34:50.838Z,31.50
2023-05-11T08:37:22.274Z,31.40
2023-05-11T08:39:55.308Z,31.30
2023-05-11T08:42:27.823Z,31.30
2023-05-11T08:45:00.457Z,31.30
2023-05-11T08:47:35.960Z,31.30
2023-05-11T08:50:07.782Z,31.30
2023-05-11T08:52:41.375Z,31.30
2023-05-11T08:55:13.009Z,31.30
2023-05-11T08:57:45.956Z,31.30
2023-05-11T09:00:18.591Z,31.20
2023-05-11T09:02:49.732Z,31.20
2023-05-11T09:05:23.424Z,31.20
2023-05-11T09:07:56.418Z,31.20
2023-05-11T09:10:27.969Z,31.30
2023-05-11T09:12:58.925Z,31.30
2023-05-11T09:15:36.991Z,31.30
2023-05-11T09:18:02.204Z,31.30
2023-05-11T09:20:34.250Z,31.40
2023-05-11T09:23:05.253Z,31.40
2023-05-11T09:25:36.355Z,31.50
2023-05-11T09:28:07.341Z,31.50
2023-05-11T09:30:38.059Z,31.50
2023-05-11T09:33:08.898Z,31.50
2023-05-11T09:35:39.617Z,31.40
2023-05-11T09:38:12.556Z,31.50
2023-05-11T09:40:57.290Z,31.40
2023-05-11T09:43:30.318Z,31.40
2023-05-11T09:46:06.337Z,31.40
2023-05-11T09:48:37.375Z,31.40
2023-05-11T09:51:10.236Z,31.40
2023-05-11T09:53:48.074Z,31.40
2023-05-11T09:56:18.865Z,31.40
2023-05-11T09:58:55.580Z,31.40
2023-05-11T10:01:36.674Z,31.40
2023-05-11T10:04:21.492Z,31.40
2023-05-11T10:06:54.238Z,31.30
2023-05-11T10:09:26.635Z,31.30
2023-05-11T10:11:59.105Z,31.30
2023-05-11T10:14:32.811Z,31.30
2023-05-11T10:17:05.369Z,31.30
2023-05-11T10:19:36.329Z,31.30
2023-05-11T10:22:08.556Z,31.20
2023-05-11T10:24:40.608Z,31.20
2023-05-11T10:27:12.436Z,31.10
2023-05-11T10:29:47.184Z,31.10
2023-05-11T10:32:19.265Z,31.10
2023-05-11T10:34:52.045Z,31.10
2023-05-11T10:37:25.370Z,31.10
2023-05-11T10:39:55.932Z,31.10
2023-05-11T10:43:02.709Z,31.00
2023-05-11T10:45:36.009Z,31.00
2023-05-11T10:48:30.969Z,31.00
2023-05-11T10:51:22.801Z,31.00
2023-05-11T10:54:05.241Z,31.00
2023-05-11T10:57:08.211Z,30.90
2023-05-11T11:00:00.742Z,30.90
2023-05-11T11:02:40.124Z,30.90
2023-05-11T11:05:12.972Z,30.90
2023-05-11T11:08:09.535Z,30.80
2023-05-11T11:10:42.706Z,30.80
2023-05-11T11:13:15.231Z,30.80
2023-05-11T11:16:03.835Z,30.80
2023-05-11T11:18:35.454Z,30.80
2023-05-11T11:21:07.228Z,30.70
2023-05-11T11:23:46.752Z,30.80
2023-05-11T11:26:20.357Z,30.80
2023-05-11T11:29:01.336Z,30.70
2023-05-11T11:31:36.395Z,30.70
2023-05-11T11:34:33.454Z,30.70
2023-05-11T11:37:07.574Z,30.70
2023-05-11T11:39:52.136Z,30.60
2023-05-11T11:42:31.836Z,30.60
2023-05-11T11:45:23.092Z,30.60
2023-05-11T11:48:14.508Z,30.60
2023-05-11T11:50:49.569Z,30.60
2023-05-11T11:53:41.356Z,30.60
2023-05-11T11:56:19.177Z,30.60
2023-05-11T11:59:01.330Z,30.50
2023-05-11T12:01:34.498Z,30.50
2023-05-11T12:04:13.907Z,30.60
2023-05-11T12:06:47.799Z,30.50
2023-05-11T12:09:21.174Z,30.50
2023-05-11T12:11:53.486Z,30.50
2023-05-11T12:14:25.182Z,30.50
2023-05-11T12:17:06.718Z,30.50
2023-05-11T12:19:37.911Z,30.50
2023-05-11T12:22:10.032Z,30.50
2023-05-11T12:24:42.464Z,30.50
2023-05-11T12:27:13.536Z,30.50
2023-05-11T12:29:46.115Z,30.40
2023-05-11T12:32:17.784Z,30.40
2023-05-11T12:34:51.268Z,30.40
2023-05-11T12:37:22.863Z,30.40
2023-05-11T12:39:58.379Z,30.40
2023-05-11T12:42:29.858Z,30.40
2023-05-11T12:45:00.852Z,30.40
2023-05-11T12:47:32.069Z,30.40
2023-05-11T12:50:04.503Z,30.40
2023-05-11T12:52:55.804Z,30.30
2023-05-11T12:55:33.643Z,30.40
2023-05-11T12:58:15.615Z,30.30
2023-05-11T13:01:00.944Z,30.30
2023-05-11T13:03:51.224Z,30.30
2023-05-11T13:06:23.984Z,30.30
2023-05-11T13:08:54.980Z,30.30
2023-05-11T13:11:29.782Z,30.30
2023-05-11T13:14:00.909Z,30.30
2023-05-11T13:16:36.885Z,30.30
2023-05-11T13:19:12.062Z,30.30
2023-05-11T13:21:46.327Z,30.30
2023-05-11T13:24:23.783Z,30.30
2023-05-11T13:26:55.836Z,30.30
2023-05-11T13:29:28.290Z,30.30
2023-05-11T13:31:59.407Z,30.30
2023-05-11T13:34:30.824Z,30.30
2023-05-11T13:37:07.558Z,30.30
2023-05-11T13:39:38.506Z,30.30
2023-05-11T13:42:10.522Z,30.30
2023-05-11T13:44:42.833Z,30.20
2023-05-11T13:47:15.414Z,30.30
2023-05-11T13:49:48.304Z,30.20
2023-05-11T13:52:21.082Z,30.20
2023-05-11T13:54:52.400Z,30.20
2023-05-11T13:57:26.267Z,30.20
2023-05-11T13:59:58.010Z,30.30
2023-05-11T14:02:32.303Z,30.20
2023-05-11T14:05:03.389Z,30.20
2023-05-11T14:07:46.418Z,30.20
2023-05-11T14:10:07.634Z,30.20
2023-05-11T14:12:40.113Z,30.20
2023-05-11T14:15:11.880Z,30.10
2023-05-11T14:17:45.807Z,30.10
2023-05-11T14:20:17.804Z,30.10
2023-05-11T14:22:48.789Z,30.10
2023-05-11T14:25:20.162Z,30.10
2023-05-11T14:27:53.537Z,30.10
2023-05-11T14:30:25.146Z,30.10
2023-05-11T14:32:57.126Z,30.10
2023-05-11T14:35:28.423Z,30.10
2023-05-11T14:37:59.597Z,30.10
2023-05-11T14:40:30.600Z,30.00
2023-05-11T14:43:01.712Z,30.00
2023-05-11T14:45:32.761Z,30.10
2023-05-11T14:48:03.991Z,30.00
2023-05-11T14:50:35.883Z,30.00
2023-05-11T14:53:07.173Z,30.00
2023-05-11T14:55:39.080Z,30.00
2023-05-11T14:58:21.664Z,30.00
2023-05-11T15:01:15.038Z,30.00
2023-05-11T15:03:45.731Z,30.00
2023-05-11T15:13:14.895Z,29.90
2023-05-11T15:13:35.796Z,29.90
2023-05-11T15:14:48.824Z,29.80
2023-05-11T15:17:24.858Z,29.80
2023-05-11T15:20:26.099Z,29.80
2023-05-11T15:22:49.621Z,29.80
2023-05-11T15:25:21.215Z,29.70
2023-05-11T15:25:50.495Z,29.90
2023-05-11T15:27:55.202Z,29.70
2023-05-11T15:30:26.614Z,29.70
2023-05-11T15:33:08.937Z,29.60
2023-05-11T15:35:37.778Z,29.60
2023-05-11T15:38:09.222Z,29.60
2023-05-11T15:40:40.375Z,29.60
2023-05-11T15:43:14.561Z,29.50
2023-05-11T15:45:48.900Z,29.50
2023-05-11T15:48:20.796Z,29.50
2023-05-11T15:50:57.923Z,29.50
2023-05-11T15:53:34.462Z,29.50
2023-05-11T15:56:04.636Z,29.40
2023-05-11T15:58:36.255Z,29.40
2023-05-11T16:01:18.654Z,29.40
2023-05-11T16:03:46.862Z,29.40
2023-05-11T16:06:26.865Z,29.40
2023-05-11T16:12:12.834Z,29.40
2023-05-11T16:14:47.867Z,29.40
2023-05-11T16:17:23.392Z,29.30
2023-05-11T16:19:55.134Z,29.40
2023-05-11T16:22:26.698Z,29.40
2023-05-11T16:24:58.227Z,29.30
2023-05-11T16:27:35.185Z,29.30
2023-05-11T16:30:22.246Z,29.30
2023-05-11T16:32:45.052Z,29.30
2023-05-11T16:35:26.187Z,29.30
2023-05-11T16:38:05.722Z,29.30
2023-05-11T16:40:40.212Z,29.30
2023-05-11T16:43:12.282Z,29.20
2023-05-11T16:45:50.128Z,29.30
2023-05-11T16:50:55.851Z,29.20
2023-05-11T16:53:40.957Z,29.20
2023-05-11T16:56:13.091Z,29.20
2023-05-11T16:58:58.976Z,29.20
2023-05-11T17:01:34.318Z,29.20
2023-05-11T17:04:06.132Z,29.20
2023-05-11T17:06:46.928Z,29.20
2023-05-11T17:09:37.351Z,29.20
2023-05-11T17:12:20.071Z,29.20
2023-05-11T17:15:13.901Z,29.20
2023-05-11T17:18:05.173Z,29.10
2023-05-11T17:20:42.445Z,29.10
2023-05-11T17:23:21.043Z,29.10
2023-05-11T17:28:42.441Z,29.10
2023-05-11T17:31:16.250Z,29.10
2023-05-11T17:33:54.445Z,29.10
2023-05-11T17:36:25.739Z,29.10
2023-05-11T17:39:02.482Z,29.10
2023-05-11T17:56:12.728Z,29.00
2023-05-11T17:58:45.268Z,28.90
2023-05-11T18:01:23.138Z,28.90
2023-05-11T18:03:58.394Z,28.90
2023-05-11T18:06:29.544Z,28.90
2023-05-11T18:09:01.386Z,28.90
2023-05-11T18:11:32.838Z,28.90
2023-05-11T18:14:06.943Z,28.80
2023-05-11T18:16:39.496Z,28.90
2023-05-11T18:34:17.182Z,28.80
2023-05-11T18:36:48.431Z,28.70
2023-05-11T18:39:20.894Z,28.80
2023-05-11T18:41:52.135Z,28.70
2023-05-11T18:44:24.053Z,28.70
2023-05-11T18:46:55.247Z,28.70
2023-05-11T18:49:33.584Z,28.70
2023-05-11T18:52:05.433Z,28.70
2023-05-11T18:54:36.626Z,28.60
2023-05-11T18:57:11.894Z,28.70
2023-05-11T18:59:51.930Z,28.60
2023-05-11T19:02:22.842Z,28.60
2023-05-11T19:07:53.345Z,28.60
2023-05-11T19:10:25.792Z,28.60
2023-05-11T19:12:58.370Z,28.60
2023-05-11T19:15:35.219Z,28.50
2023-05-11T19:18:06.501Z,28.50
2023-05-11T19:20:39.126Z,28.60
2023-05-11T19:23:10.183Z,28.60
2023-05-11T19:25:42.475Z,28.60
2023-05-11T19:28:13.652Z,28.50
2023-05-11T19:30:44.639Z,28.50
2023-05-11T19:33:15.737Z,28.50
2023-05-11T19:35:46.927Z,28.50
2023-05-11T19:38:17.932Z,28.50
2023-05-11T19:40:52.185Z,28.50
2023-05-11T19:43:24.706Z,28.50
2023-05-11T19:45:55.672Z,28.50
2023-05-11T19:48:26.694Z,28.50
2023-05-11T19:50:57.803Z,28.50
2023-05-11T19:53:29.158Z,28.50
2023-05-11T19:56:01.077Z,28.50
2023-05-11T19:58:32.048Z,28.50
2023-05-11T20:01:03.118Z,28.50
2023-05-11T20:03:34.365Z,28.40
2023-05-11T20:06:05.542Z,28.50
2023-05-11T20:08:36.541Z,28.50
2023-05-11T20:11:08.018Z,28.50
2023-05-11T20:13:39.070Z,28.50
2023-05-11T20:16:10.092Z,28.40
2023-05-11T20:18:41.114Z,28.40
2023-05-11T20:21:12.354Z,28.40
2023-05-11T20:23:43.299Z,28.40
2023-05-11T20:26:14.484Z,28.40
2023-05-11T20:28:45.417Z,28.40
2023-05-11T20:31:17.002Z,28.40
2023-05-11T20:36:20.195Z,28.40
2023-05-11T20:38:51.199Z,28.40
2023-05-11T20:41:23.050Z,28.40
2023-05-11T20:43:56.619Z,28.40
2023-05-11T20:46:28.860Z,28.40
2023-05-11T20:49:00.166Z,28.40
2023-05-11T20:51:31.000Z,28.40
2023-05-11T20:54:04.280Z,28.40
2023-05-11T20:56:35.565Z,28.30
2023-05-11T20:59:07.102Z,28.40
2023-05-11T21:01:38.061Z,28.40
2023-05-11T21:04:09.224Z,28.30
2023-05-11T21:06:40.778Z,28.40
2023-05-11T21:09:12.082Z,28.30
2023-05-11T21:11:43.081Z,28.40
2023-05-11T21:14:16.839Z,28.30
2023-05-11T21:16:48.135Z,28.40
2023-05-11T21:19:19.727Z,28.30
2023-05-11T21:21:50.892Z,28.40
2023-05-11T21:24:21.961Z,28.40
2023-05-11T21:26:54.228Z,28.40
2023-05-11T21:29:25.167Z,28.30
2023-05-11T21:31:57.089Z,28.40
2023-05-11T21:34:28.629Z,28.40
2023-05-11T21:37:00.925Z,28.40
2023-05-11T21:39:31.897Z,28.40
2023-05-11T21:42:03.794Z,28.30
2023-05-11T21:44:37.287Z,28.30
2023-05-11T21:47:08.784Z,28.40
2023-05-11T21:49:39.833Z,28.40
2023-05-11T21:52:10.906Z,28.30
2023-05-11T21:54:41.841Z,28.30
2023-05-11T21:57:15.363Z,28.30
2023-05-11T21:59:46.355Z,28.30
2023-05-11T22:02:17.563Z,28.30
2023-05-11T22:04:48.543Z,28.30
2023-05-11T22:07:19.600Z,28.30
2023-05-11T22:09:50.689Z,28.30
2023-05-11T22:12:21.630Z,28.30
2023-05-11T22:14:52.698Z,28.30
2023-05-11T22:17:23.993Z,28.30
2023-05-11T22:19:54.937Z,28.30
2023-05-11T22:22:26.034Z,28.30
2023-05-11T22:24:57.006Z,28.30
2023-05-11T22:27:28.080Z,28.30
2023-05-11T22:29:59.048Z,28.30
2023-05-11T22:32:30.157Z,28.30
2023-05-11T22:35:03.143Z,28.20
2023-05-11T22:37:34.698Z,28.20
2023-05-11T22:40:06.449Z,28.20
2023-05-11T22:42:37.460Z,28.20
2023-05-11T22:45:09.537Z,28.20
2023-05-11T22:47:40.510Z,28.20
2023-05-11T22:50:13.224Z,28.20
2023-05-11T22:52:44.236Z,28.20
2023-05-11T22:55:15.447Z,28.20
2023-05-11T22:57:46.496Z,28.20
2023-05-11T23:00:21.057Z,28.10
2023-05-11T23:02:52.356Z,28.10
2023-05-11T23:05:23.923Z,28.10
2023-05-11T23:07:56.346Z,28.10
2023-05-11T23:10:28.792Z,28.10
2023-05-11T23:12:59.876Z,28.10
2023-05-11T23:15:37.325Z,28.10
2023-05-11T23:18:07.764Z,28.10
2023-05-11T23:20:41.065Z,28.10
2023-05-11T23:23:11.310Z,28.10
2023-05-11T23:25:45.644Z,28.10
2023-05-11T23:28:16.848Z,28.10
2023-05-11T23:30:48.322Z,28.20
2023-05-11T23:33:20.279Z,28.20
2023-05-11T23:35:51.289Z,28.10
2023-05-11T23:38:22.264Z,28.20
2023-05-11T23:40:53.588Z,28.20
2023-05-11T23:43:24.527Z,28.20
2023-05-11T23:45:57.136Z,28.20
2023-05-11T23:48:28.105Z,28.20
2023-05-11T23:50:59.060Z,28.20
2023-05-11T23:53:30.095Z,28.20
2023-05-11T23:56:01.046Z,28.30
2023-05-11T23:58:32.198Z,28.20
